Time;durP1;ratioP1;P1;durP2;ratioP2;P2;SDS_P1;SDS_P2;PMS_P1;PMS_P2;Temp;Humidity;BMP_temperature;BMP_pressure;BME280_temperature;BME280_humidity;BME280_pressure;Samples;Min_cycle;Max_cycle;Signal;HPM_P1;HPM_P2
2023/09/19 00:00:23;;;;;;;8.68;5.75;;;;;;;19.94;84.39;100141.73;1417178;91;21516;-80
2023/09/19 00:02:59;;;;;;;9.30;6.50;;;;;;;19.95;84.31;100134.00;1425648;91;21649;-80
2023/09/19 00:05:25;;;;;;;10.53;6.83;;;;;;;19.98;83.62;100130.88;1430818;91;21441;-80
2023/09/19 00:07:59;;;;;;;7.75;6.92;;;;;;;19.99;82.84;100128.48;1419934;91;22471;-80
2023/09/19 00:10:29;;;;;;;8.78;6.42;;;;;;;20.00;82.84;100128.80;1406417;91;21420;-79
2023/09/19 00:12:55;;;;;;;14.18;7.00;;;;;;;20.01;82.62;100117.02;1427890;91;22058;-79
2023/09/19 00:15:23;;;;;;;6.62;6.00;;;;;;;19.99;81.95;100119.08;1422182;91;21367;-80
2023/09/19 00:17:52;;;;;;;7.12;6.42;;;;;;;19.99;81.67;100119.08;1421240;91;21389;-80
2023/09/19 00:20:17;;;;;;;9.05;6.97;;;;;;;19.99;81.80;100116.39;1427336;91;21611;-80
2023/09/19 00:22:44;;;;;;;10.50;6.28;;;;;;;19.98;81.55;100113.41;1426264;91;21493;-79
2023/09/19 00:25:11;;;;;;;9.25;5.40;;;;;;;19.99;81.73;100108.34;1424424;91;22373;-80
2023/09/19 00:27:42;;;;;;;10.15;6.45;;;;;;;19.99;81.76;100102.97;1422330;91;21670;-79
2023/09/19 00:30:24;;;;;;;;;;;;;;;20.01;81.50;100100.89;1424420;91;21457;-80
2023/09/19 00:32:54;;;;;;;11.05;5.87;;;;;;;20.02;80.95;100100.69;1428133;91;20663;-79
2023/09/19 00:35:24;;;;;;;8.45;5.97;;;;;;;20.01;80.48;100096.34;1428298;91;21330;-79
2023/09/19 00:37:51;;;;;;;13.40;7.07;;;;;;;20.00;80.12;100090.67;1425280;91;21375;-80
2023/09/19 00:40:18;;;;;;;11.57;6.70;;;;;;;19.98;80.35;100094.09;1421798;91;21448;-79
2023/09/19 00:42:46;;;;;;;11.40;6.12;;;;;;;19.99;79.98;100086.84;1426146;91;21549;-78
2023/09/19 00:45:15;;;;;;;11.33;6.05;;;;;;;19.99;79.50;100075.58;1424329;91;21442;-79
2023/09/19 00:47:50;;;;;;;8.03;6.75;;;;;;;19.97;79.32;100072.31;1420618;91;21618;-79
2023/09/19 00:50:22;;;;;;;11.55;5.80;;;;;;;19.98;78.95;100068.57;1402597;91;21345;-79
2023/09/19 00:52:52;;;;;;;8.08;5.58;;;;;;;19.99;79.18;100069.39;1419312;91;21574;-79
2023/09/19 00:55:23;;;;;;;11.20;5.40;;;;;;;20.00;78.99;100063.00;1422172;91;21588;-79
2023/09/19 00:57:49;;;;;;;7.55;6.03;;;;;;;20.03;78.98;100055.84;1423712;91;22327;-80
2023/09/19 01:00:16;;;;;;;8.38;6.65;;;;;;;20.04;78.17;100052.11;1425152;91;21413;-80
2023/09/19 01:02:45;;;;;;;8.10;6.50;;;;;;;20.05;77.83;100059.11;1423635;91;21397;-79
2023/09/19 01:05:15;;;;;;;13.30;6.60;;;;;;;20.04;77.58;100056.95;1422724;91;21595;-79
2023/09/19 01:07:44;;;;;;;11.45;7.53;;;;;;;20.03;77.51;100048.60;1426475;91;22217;-80
2023/09/19 01:10:14;;;;;;;8.85;5.80;;;;;;;20.04;77.32;100045.39;1423575;91;22558;-79
2023/09/19 01:13:07;;;;;;;6.87;6.17;;;;;;;20.04;77.39;100049.42;1401690;91;21809;-79
2023/09/19 01:15:57;;;;;;;9.95;6.15;;;;;;;20.03;77.12;100045.10;1422152;91;23113;-79
2023/09/19 01:18:56;;;;;;;7.85;5.87;;;;;;;20.03;76.79;100042.41;1417805;91;21618;-80
2023/09/19 01:21:37;;;;;;;7.05;5.53;;;;;;;20.02;76.66;100044.78;1419457;91;21448;-79
2023/09/19 01:24:35;;;;;;;7.50;6.28;;;;;;;20.01;76.71;100049.86;1424553;91;21441;-79
2023/09/19 01:27:39;;;;;;;8.08;5.12;;;;;;;20.02;76.71;100046.12;1424434;91;21692;-79
2023/09/19 01:30:16;;;;;;;7.67;5.67;;;;;;;20.03;76.94;100049.12;1427047;91;23227;-80
2023/09/19 01:32:46;;;;;;;8.05;6.62;;;;;;;20.05;76.93;100047.02;1424575;91;21425;-82
2023/09/19 01:35:13;;;;;;;7.50;6.40;;;;;;;20.04;77.60;100048.08;1425939;91;22233;-80
2023/09/19 01:37:42;;;;;;;9.38;6.30;;;;;;;19.98;79.86;100037.69;1416139;91;21411;-82
2023/09/19 01:40:17;;;;;;;7.55;6.47;;;;;;;19.88;81.82;100035.17;1428341;91;21486;-81
2023/09/19 01:43:22;;;;;;;9.50;6.42;;;;;;;19.75;84.30;100048.19;1415770;91;21339;-81
2023/09/19 01:46:14;;;;;;;9.43;5.62;;;;;;;19.65;84.87;100040.63;1430210;91;21470;-81
2023/09/19 01:48:52;;;;;;;7.92;6.10;;;;;;;19.55;89.62;100032.17;1425472;91;21604;-82
2023/09/19 01:51:24;;;;;;;9.90;5.78;;;;;;;19.44;90.99;100016.76;1422398;91;21669;-82
2023/09/19 01:54:06;;;;;;;7.60;6.28;;;;;;;19.37;91.64;100012.78;1427576;91;21633;-83
2023/09/19 01:56:52;;;;;;;7.87;6.53;;;;;;;19.30;91.95;100012.80;1423495;91;21390;-81
2023/09/19 01:59:28;;;;;;;11.55;7.25;;;;;;;19.24;93.55;100009.63;1420314;91;22364;-81
2023/09/19 02:01:56;;;;;;;7.45;6.28;;;;;;;19.18;97.51;100003.79;1422273;91;21501;-81
2023/09/19 02:04:22;;;;;;;6.67;5.37;;;;;;;19.14;97.99;100009.29;1414735;91;21464;-81
2023/09/19 02:06:48;;;;;;;10.25;5.22;;;;;;;19.11;100.00;100008.38;1422140;91;22053;-81
2023/09/19 02:09:15;;;;;;;6.55;5.60;;;;;;;19.11;100.00;100017.77;1421616;91;21441;-81
2023/09/19 02:11:41;;;;;;;12.00;6.05;;;;;;;19.12;100.00;100020.74;1392764;91;22241;-81
2023/09/19 02:14:08;;;;;;;8.80;6.05;;;;;;;19.11;100.00;100040.04;1427187;91;21352;-81
2023/09/19 02:16:35;;;;;;;8.58;6.60;;;;;;;19.08;100.00;100059.24;1428203;91;21512;-80
2023/09/19 02:19:05;;;;;;;7.17;6.08;;;;;;;18.98;100.00;100057.52;1422309;91;21316;-81
2023/09/19 02:21:29;;;;;;;11.68;6.40;;;;;;;18.87;100.00;100068.39;1423476;91;21456;-79
2023/09/19 02:23:56;;;;;;;13.65;6.15;;;;;;;18.80;100.00;100075.61;1426605;91;21419;-80
2023/09/19 02:26:27;;;;;;;9.73;6.25;;;;;;;18.79;100.00;100087.38;1427333;91;22365;-80
2023/09/19 02:28:50;;;;;;;15.15;6.87;;;;;;;18.74;100.00;100101.11;1426974;91;21447;-81
2023/09/19 02:31:17;;;;;;;15.60;6.67;;;;;;;18.63;100.00;100091.80;1426288;91;22269;-83
2023/09/19 02:33:43;;;;;;;14.00;7.15;;;;;;;18.55;100.00;100093.36;1416996;91;21819;-82
2023/09/19 02:36:10;;;;;;;14.13;8.23;;;;;;;18.35;100.00;100070.08;1424801;91;21626;-82
2023/09/19 02:38:37;;;;;;;15.30;8.05;;;;;;;18.18;100.00;100060.32;1426424;91;21412;-81
2023/09/19 02:41:04;;;;;;;13.17;7.13;;;;;;;18.04;100.00;100055.98;1425086;91;21360;-82
2023/09/19 02:43:30;;;;;;;10.53;7.07;;;;;;;17.94;100.00;100029.60;1424919;91;21486;-81
2023/09/19 02:45:57;;;;;;;12.87;7.03;;;;;;;17.81;100.00;100025.59;1418736;91;22580;-81
2023/09/19 02:48:24;;;;;;;10.30;6.80;;;;;;;17.79;100.00;100014.27;1422469;91;21501;-80
2023/09/19 02:50:51;;;;;;;9.40;6.43;;;;;;;17.71;100.00;100029.96;1426980;91;21641;-82
2023/09/19 02:53:18;;;;;;;13.83;7.83;;;;;;;17.58;100.00;100016.58;1422754;91;21637;-81
2023/09/19 02:55:46;;;;;;;9.03;6.00;;;;;;;17.58;100.00;100026.77;1426769;91;21419;-79
2023/09/19 02:58:14;;;;;;;16.53;7.63;;;;;;;17.59;100.00;100020.89;1428094;91;21552;-80
2023/09/19 03:00:41;;;;;;;7.43;6.63;;;;;;;17.60;100.00;100008.62;1428603;91;21434;-81
2023/09/19 03:03:09;;;;;;;7.10;6.07;;;;;;;17.63;100.00;99989.19;1421477;91;21375;-81
2023/09/19 03:05:35;;;;;;;8.83;5.60;;;;;;;17.66;100.00;100009.67;1427652;91;21612;-80
2023/09/19 03:08:04;;;;;;;8.07;6.00;;;;;;;17.66;100.00;100001.64;1429322;91;21599;-79
2023/09/19 03:10:31;;;;;;;10.67;7.07;;;;;;;17.69;100.00;99997.73;1430523;91;22399;-79
2023/09/19 03:12:59;;;;;;;9.30;6.33;;;;;;;17.69;100.00;100003.09;1425068;91;21859;-79
2023/09/19 03:15:26;;;;;;;7.60;6.00;;;;;;;17.65;100.00;99996.52;1425673;91;21331;-79
2023/09/19 03:17:53;;;;;;;7.33;6.50;;;;;;;17.67;100.00;100006.51;1425267;91;22305;-83
2023/09/19 03:20:20;;;;;;;14.27;7.77;;;;;;;17.70;100.00;99999.41;1422648;91;21566;-82
2023/09/19 03:22:48;;;;;;;8.50;6.23;;;;;;;17.68;100.00;99995.58;1421420;91;22291;-81
2023/09/19 03:25:15;;;;;;;15.40;6.37;;;;;;;17.68;100.00;100004.13;1423700;91;22277;-82
2023/09/19 03:27:41;;;;;;;13.23;7.77;;;;;;;17.67;100.00;99995.80;1426349;91;21382;-82
2023/09/19 03:30:08;;;;;;;11.13;6.63;;;;;;;17.67;100.00;99997.14;1422185;91;21471;-82
2023/09/19 03:32:37;;;;;;;8.40;7.23;;;;;;;17.66;100.00;99993.61;1422905;91;22336;-83
2023/09/19 03:35:05;;;;;;;11.83;7.07;;;;;;;17.66;100.00;99994.13;1427752;91;21448;-83
2023/09/19 03:37:33;;;;;;;9.67;6.77;;;;;;;17.69;100.00;99995.88;1425682;91;21389;-80
2023/09/19 03:40:04;;;;;;;13.53;7.03;;;;;;;17.70;100.00;99992.72;1428808;91;21612;-81
2023/09/19 03:42:28;;;;;;;7.37;6.47;;;;;;;17.71;100.00;99994.35;1423104;91;21508;-83
2023/09/19 03:44:55;;;;;;;8.80;6.50;;;;;;;17.72;100.00;99999.52;1422303;91;21426;-81
2023/09/19 03:47:21;;;;;;;14.40;6.57;;;;;;;17.73;100.00;99994.98;1429981;91;21604;-83
2023/09/19 03:49:48;;;;;;;8.33;6.97;;;;;;;17.73;100.00;99996.31;1407137;91;21425;-81
2023/09/19 03:52:15;;;;;;;10.80;6.63;;;;;;;17.73;100.00;99993.64;1429709;91;21541;-83
2023/09/19 03:54:43;;;;;;;9.97;7.57;;;;;;;17.75;100.00;99989.73;1426393;91;22248;-81
2023/09/19 03:57:09;;;;;;;7.90;6.80;;;;;;;17.80;100.00;99989.13;1423455;91;21382;-81
2023/09/19 04:03:46;;;;;;;14.33;7.92;;;;;;;17.85;100.00;99993.88;1423503;91;21397;-83
2023/09/19 04:06:14;;;;;;;10.73;7.23;;;;;;;17.84;100.00;99998.42;1426051;91;21419;-83
2023/09/19 04:08:41;;;;;;;8.43;6.97;;;;;;;17.85;100.00;99995.22;1428058;91;21548;-82
2023/09/19 04:11:07;;;;;;;11.07;7.53;;;;;;;17.86;100.00;99996.34;1427505;91;22447;-83
2023/09/19 04:13:34;;;;;;;11.87;7.97;;;;;;;17.87;100.00;99994.51;1422339;91;22682;-82
2023/09/19 04:16:00;;;;;;;11.17;8.70;;;;;;;17.88;100.00;100004.17;1425686;91;21412;-82
2023/09/19 04:18:27;;;;;;;9.97;7.53;;;;;;;17.87;100.00;99997.19;1429933;91;21619;-81
2023/09/19 04:20:53;;;;;;;12.75;6.75;;;;;;;17.86;100.00;99999.02;1429011;91;21411;-83
2023/09/19 04:23:20;;;;;;;13.68;8.23;;;;;;;17.85;100.00;99985.33;1405742;91;21743;-80
2023/09/19 04:25:47;;;;;;;15.50;8.27;;;;;;;17.85;100.00;99994.70;1422935;91;21838;-80
2023/09/19 04:28:13;;;;;;;9.73;7.90;;;;;;;17.84;100.00;99997.08;1428591;91;21434;-80
2023/09/19 04:30:42;;;;;;;10.10;7.50;;;;;;;17.84;100.00;99995.74;1431033;91;21382;-80
2023/09/19 04:33:08;;;;;;;10.47;7.97;;;;;;;17.85;100.00;99993.36;1425104;91;21708;-80
2023/09/19 04:35:35;;;;;;;8.63;6.57;;;;;;;17.85;100.00;99996.56;1431807;91;21626;-82
2023/09/19 04:38:03;;;;;;;11.87;7.87;;;;;;;17.84;100.00;99991.73;1408763;91;21410;-82
2023/09/19 04:40:29;;;;;;;9.37;6.90;;;;;;;17.85;100.00;99997.38;1432419;91;21382;-83
2023/09/19 04:42:57;;;;;;;15.13;7.40;;;;;;;17.84;100.00;99995.74;1424718;91;21596;-83
2023/09/19 04:45:24;;;;;;;11.40;7.30;;;;;;;17.85;100.00;99989.34;1420979;91;22210;-82
2023/09/19 04:47:50;;;;;;;11.67;6.40;;;;;;;17.88;100.00;99999.64;1426515;91;21596;-82
2023/09/19 04:50:21;;;;;;;8.00;6.60;;;;;;;17.90;100.00;99987.41;1423697;91;21397;-82
2023/09/19 04:52:51;;;;;;;10.08;7.08;;;;;;;17.90;100.00;99986.88;1430125;91;21382;-83
2023/09/19 04:55:19;;;;;;;12.43;6.53;;;;;;;17.90;100.00;99996.25;1404157;91;21411;-82
2023/09/19 04:57:50;;;;;;;12.30;6.97;;;;;;;17.90;100.00;99986.88;1428663;91;21397;-80
2023/09/19 05:00:23;;;;;;;8.60;7.17;;;;;;;17.87;100.00;99985.95;1428531;91;21389;-79
2023/09/19 05:02:51;;;;;;;11.43;7.17;;;;;;;17.88;100.00;99988.94;1432951;91;21478;-80
2023/09/19 05:05:18;;;;;;;13.33;7.70;;;;;;;17.88;100.00;99996.97;1419652;91;21360;-79
2023/09/19 05:07:46;;;;;;;10.63;6.60;;;;;;;17.89;100.00;100001.80;1422050;91;21523;-80
2023/09/19 05:10:13;;;;;;;8.90;7.00;;;;;;;17.89;100.00;100001.80;1417741;91;21517;-79
2023/09/19 05:12:41;;;;;;;10.97;7.80;;;;;;;17.90;100.00;100008.30;1428817;91;21501;-80
2023/09/19 05:15:08;;;;;;;10.47;7.77;;;;;;;17.90;100.00;100005.63;1420446;91;22160;-81
2023/09/19 05:17:36;;;;;;;10.10;8.60;;;;;;;17.90;100.00;100006.14;1425587;91;22262;-80
2023/09/19 05:20:24;;;;;;;8.23;7.07;;;;;;;17.90;100.00;100006.96;1433386;91;21539;-80
2023/09/19 05:22:46;;;;;;;12.23;7.40;;;;;;;17.89;100.00;100003.14;1423693;91;22573;-80
2023/09/19 05:25:20;;;;;;;9.90;7.87;;;;;;;17.91;100.00;100005.10;1418001;91;21338;-80
2023/09/19 05:27:43;;;;;;;12.70;6.80;;;;;;;17.93;100.00;100011.91;1420264;91;21463;-77
2023/09/19 05:30:14;;;;;;;15.20;8.13;;;;;;;17.94;100.00;100006.84;1430876;91;21353;-80
2023/09/19 05:32:41;;;;;;;9.37;6.63;;;;;;;17.97;100.00;100009.11;1430109;91;21509;-82
2023/09/19 05:35:09;;;;;;;10.23;6.83;;;;;;;17.99;100.00;100001.70;1422836;91;21413;-82
2023/09/19 05:37:36;;;;;;;11.65;7.47;;;;;;;18.01;100.00;99999.66;1425234;91;22388;-83
2023/09/19 05:40:07;;;;;;;15.27;7.60;;;;;;;18.06;100.00;100004.89;1426806;91;21360;-82
2023/09/19 05:42:31;;;;;;;7.60;6.77;;;;;;;18.06;100.00;100004.38;1431616;91;21495;-82
2023/09/19 05:44:58;;;;;;;11.00;6.30;;;;;;;18.07;100.00;100002.52;1406123;91;21433;-82
2023/09/19 05:47:25;;;;;;;10.88;6.95;;;;;;;18.09;100.00;100000.45;1426793;91;22527;-81
2023/09/19 05:49:52;;;;;;;14.53;7.40;;;;;;;18.11;100.00;100001.91;1415884;91;21427;-81
2023/09/19 05:52:19;;;;;;;9.28;7.95;;;;;;;18.13;100.00;100005.20;1404952;91;21508;-82
2023/09/19 05:54:45;;;;;;;11.97;6.78;;;;;;;18.14;100.00;100002.01;1425010;91;21375;-81
2023/09/19 05:57:12;;;;;;;14.18;7.62;;;;;;;18.14;100.00;99999.33;1423868;91;21442;-80
2023/09/19 05:59:39;;;;;;;9.05;7.03;;;;;;;18.15;100.00;100002.30;1426415;91;21456;-78
2023/09/19 06:02:07;;;;;;;9.30;6.40;;;;;;;18.17;100.00;99997.57;1422900;91;21449;-80
2023/09/19 06:04:34;;;;;;;12.43;8.33;;;;;;;18.18;100.00;99995.19;1427763;91;21361;-80
2023/09/19 06:07:01;;;;;;;11.70;7.53;;;;;;;18.19;100.00;99991.50;1422950;91;21339;-80
2023/09/19 06:09:28;;;;;;;9.33;5.70;;;;;;;18.22;100.00;99987.06;1421615;91;21500;-82
2023/09/19 06:11:55;;;;;;;12.85;6.80;;;;;;;18.22;100.00;99984.39;1433627;91;21396;-79
2023/09/19 06:14:23;;;;;;;10.85;7.40;;;;;;;18.25;100.00;99985.31;1428340;91;22180;-79
2023/09/19 06:16:49;;;;;;;15.90;8.30;;;;;;;18.27;100.00;99976.56;1429669;91;21382;-79
2023/09/19 06:19:15;;;;;;;13.18;7.00;;;;;;;18.31;100.00;99980.45;1425872;91;22321;-80
2023/09/19 06:21:42;;;;;;;9.53;6.30;;;;;;;18.33;100.00;99975.72;1427942;91;21828;-79
2023/09/19 06:24:08;;;;;;;7.60;6.12;;;;;;;18.36;100.00;99974.48;1425771;91;21561;-80
2023/09/19 06:26:34;;;;;;;8.50;7.08;;;;;;;18.42;100.00;99974.98;1426075;91;21331;-79
2023/09/19 06:29:00;;;;;;;7.78;6.28;;;;;;;18.49;100.00;99972.56;1430422;91;21589;-79
2023/09/19 06:31:27;;;;;;;9.43;6.17;;;;;;;18.55;100.00;99969.56;1421636;91;22366;-79
2023/09/19 06:33:53;;;;;;;8.68;5.95;;;;;;;18.63;100.00;99969.34;1430292;91;21346;-78
2023/09/19 06:36:20;;;;;;;12.68;7.05;;;;;;;18.71;100.00;99968.29;1420902;91;21383;-80
2023/09/19 06:38:46;;;;;;;17.23;8.08;;;;;;;18.80;100.00;99957.66;1423558;91;21419;-85
2023/09/19 06:41:13;;;;;;;8.13;6.72;;;;;;;18.88;100.00;99964.13;1429716;91;21433;-81
2023/09/19 06:43:39;;;;;;;12.40;8.08;;;;;;;18.94;100.00;99961.92;1423717;91;21570;-87
2023/09/19 06:46:07;;;;;;;11.22;8.85;;;;;;;18.94;100.00;99955.22;1426444;91;21346;-88
2023/09/19 06:48:39;;;;;;;7.58;6.50;;;;;;;18.96;100.00;99967.58;1418853;91;21404;-92
2023/09/19 06:51:07;;;;;;;12.85;7.05;;;;;;;19.01;100.00;99961.06;1417307;91;21457;-88
2023/09/19 06:53:36;;;;;;;14.85;6.97;;;;;;;19.08;100.00;99964.55;1419418;91;21382;-87
2023/09/19 06:56:03;;;;;;;13.90;6.45;;;;;;;19.11;100.00;99961.44;1424090;91;21796;-86
2023/09/19 06:58:30;;;;;;;9.90;6.53;;;;;;;19.13;100.00;99962.87;1430507;91;21405;-87
2023/09/19 07:00:56;;;;;;;7.65;6.95;;;;;;;19.17;100.00;99965.94;1417718;91;21419;-89
2023/09/19 07:03:26;;;;;;;7.85;6.53;;;;;;;19.19;100.00;99963.87;1424769;91;21331;-89
2023/09/19 07:05:51;;;;;;;11.48;6.12;;;;;;;19.23;100.00;99974.47;1424398;91;22477;-88
2023/09/19 07:08:18;;;;;;;6.87;5.67;;;;;;;19.23;100.00;99977.15;1426153;91;21442;-90
2023/09/19 07:10:48;;;;;;;11.30;6.15;;;;;;;19.27;100.00;99964.94;1428607;91;22298;-89
2023/09/19 07:13:18;;;;;;;10.50;6.47;;;;;;;19.34;100.00;99974.31;1431682;91;21255;-88
2023/09/19 07:15:49;;;;;;;10.20;7.08;;;;;;;19.44;100.00;99972.48;1428276;91;21405;-88
2023/09/19 07:18:17;;;;;;;8.38;6.42;;;;;;;19.57;100.00;99983.14;1429134;91;21514;-91
2023/09/19 07:20:48;;;;;;;11.28;6.83;;;;;;;19.75;100.00;99985.91;1434751;91;22299;-89
2023/09/19 07:23:14;;;;;;;9.23;6.03;;;;;;;19.99;100.00;99982.92;1416004;90;21389;-90
2023/09/19 07:25:41;;;;;;;11.48;6.00;;;;;;;20.26;100.00;99978.14;1425166;91;21551;-85
2023/09/19 07:28:07;;;;;;;7.53;5.65;;;;;;;20.54;100.00;99979.52;1420952;91;21582;-89
2023/09/19 07:30:43;;;;;;;7.40;4.28;;;;;;;20.80;100.00;99976.22;1427744;91;21406;-90
2023/09/19 07:33:07;;;;;;;6.25;4.33;;;;;;;20.99;100.00;99971.13;1421907;91;21618;-88
2023/09/19 07:35:33;;;;;;;14.30;5.55;;;;;;;21.13;100.00;99969.90;1426007;91;21346;-88
2023/09/19 07:38:11;;;;;;;12.37;5.70;;;;;;;21.31;100.00;99968.20;1426432;91;21375;-87
2023/09/19 07:40:37;;;;;;;11.83;5.60;;;;;;;21.44;100.00;99970.75;1426806;91;21544;-90
2023/09/19 07:43:04;;;;;;;17.50;5.65;;;;;;;21.58;100.00;99972.19;1427897;91;21441;-87
2023/09/19 07:45:32;;;;;;;20.92;8.20;;;;;;;21.69;100.00;99970.55;1424604;91;21390;-89
2023/09/19 07:48:03;;;;;;;12.43;4.97;;;;;;;21.86;100.00;99972.85;1425192;91;22353;-89
2023/09/19 07:50:28;;;;;;;11.63;5.60;;;;;;;22.01;100.00;99972.42;1426154;91;21448;-89
2023/09/19 07:52:55;;;;;;;8.28;4.35;;;;;;;22.11;100.00;99968.31;1425386;91;21582;-87
2023/09/19 07:55:25;;;;;;;11.93;5.00;;;;;;;22.22;100.00;99967.52;1422433;91;22239;-86
2023/09/19 07:57:55;;;;;;;8.95;5.53;;;;;;;22.25;100.00;99962.48;1422594;91;21434;-88
2023/09/19 08:00:21;;;;;;;13.58;5.20;;;;;;;22.33;100.00;99959.96;1427113;91;22535;-87
2023/09/19 08:02:47;;;;;;;9.65;4.87;;;;;;;22.36;100.00;99958.67;1427153;91;22418;-87
2023/09/19 08:05:17;;;;;;;19.82;5.67;;;;;;;22.39;100.00;99963.05;1427774;91;21530;-88
2023/09/19 08:07:48;;;;;;;9.73;4.72;;;;;;;22.51;100.00;99962.50;1427445;91;22403;-90
2023/09/19 08:10:16;;;;;;;13.80;6.50;;;;;;;22.55;100.00;99964.72;1505826;91;21242;-88
2023/09/19 08:12:46;;;;;;;12.53;5.80;;;;;;;22.56;100.00;99963.66;1419133;91;21338;-89
2023/09/19 08:15:23;;;;;;;12.78;4.83;;;;;;;22.50;100.00;99962.75;1420655;91;21427;-89
2023/09/19 08:17:47;;;;;;;13.05;5.72;;;;;;;22.48;100.00;99965.67;1424890;91;21552;-87
2023/09/19 08:20:19;;;;;;;8.00;4.60;;;;;;;22.50;100.00;99956.83;1425785;91;21449;-88
2023/09/19 08:22:54;;;;;;;9.45;4.33;;;;;;;22.57;100.00;99955.87;1421975;91;21397;-89
2023/09/19 08:25:25;;;;;;;9.83;6.05;;;;;;;22.61;100.00;99958.38;1429374;91;22313;-86
2023/09/19 08:27:51;;;;;;;13.18;5.70;;;;;;;22.62;100.00;99970.28;1424720;91;22387;-84
2023/09/19 08:30:23;;;;;;;12.37;6.50;;;;;;;22.60;100.00;99969.70;1427302;91;21397;-88
2023/09/19 08:32:49;;;;;;;9.45;4.87;;;;;;;22.58;100.00;99968.28;1426251;91;21397;-90
2023/09/19 08:35:16;;;;;;;11.53;5.62;;;;;;;22.56;100.00;99969.05;1426332;91;22403;-88
2023/09/19 08:37:45;;;;;;;10.30;4.92;;;;;;;22.53;100.00;99961.74;1428300;91;21383;-86
2023/09/19 08:40:12;;;;;;;10.60;5.25;;;;;;;22.54;100.00;99963.91;1422909;91;22218;-89
2023/09/19 08:42:56;;;;;;;15.50;5.67;;;;;;;22.53;100.00;99964.97;1425742;91;21419;-89
2023/09/19 08:45:27;;;;;;;11.93;5.25;;;;;;;22.52;100.00;99954.69;1352899;91;21265;-86
2023/09/19 08:48:14;;;;;;;;;;;;;;;22.57;100.00;99953.17;1384122;91;21655;-88
2023/09/19 08:51:10;;;;;;;20.10;5.97;;;;;;;22.68;100.00;99959.08;1428233;91;20304;-88
2023/09/19 08:53:53;;;;;;;12.63;5.30;;;;;;;23.02;100.00;99951.11;1422038;91;21597;-88
2023/09/19 08:56:22;;;;;;;10.50;5.62;;;;;;;23.31;100.00;99943.30;1402975;91;21970;-87
2023/09/19 08:58:56;;;;;;;15.55;5.08;;;;;;;23.52;100.00;99940.95;1425535;91;21397;-89
2023/09/19 09:01:24;;;;;;;18.77;5.65;;;;;;;23.59;100.00;99934.84;1424406;91;21478;-88
2023/09/19 09:03:56;;;;;;;10.25;5.37;;;;;;;23.69;100.00;99940.42;1389593;91;21411;-89
2023/09/19 09:06:25;;;;;;;17.25;5.72;;;;;;;23.73;100.00;99932.67;1427237;91;21309;-88
2023/09/19 09:08:52;;;;;;;15.18;5.67;;;;;;;23.90;100.00;99939.42;1425790;91;21471;-88
2023/09/19 09:11:19;;;;;;;14.53;6.03;;;;;;;23.86;100.00;99949.38;1425490;91;21552;-81
2023/09/19 09:13:46;;;;;;;15.43;5.92;;;;;;;23.81;100.00;99930.38;1422441;91;21442;-81
2023/09/19 09:16:13;;;;;;;22.32;5.80;;;;;;;23.80;100.00;99939.55;1426053;91;21484;-81
2023/09/19 09:18:40;;;;;;;13.55;5.47;;;;;;;23.82;100.00;99936.08;1505739;91;21241;-81
2023/09/19 09:21:08;;;;;;;15.68;5.70;;;;;;;23.87;100.00;99933.44;1504292;91;21430;-81
2023/09/19 09:23:35;;;;;;;16.07;5.72;;;;;;;23.86;100.00;99941.27;1351432;91;22190;-82
2023/09/19 09:26:05;;;;;;;16.27;5.83;;;;;;;23.80;100.00;99933.34;1355496;91;21279;-80
2023/09/19 09:28:35;;;;;;;17.48;5.62;;;;;;;23.73;100.00;99930.78;1402000;91;21384;-80
2023/09/19 09:31:08;;;;;;;21.70;5.67;;;;;;;23.79;100.00;99926.28;1352834;91;21279;-81
2023/09/19 09:33:30;;;;;;;12.82;5.58;;;;;;;23.82;100.00;99923.92;1375801;91;21428;-81
2023/09/19 09:36:03;;;;;;;21.95;6.47;;;;;;;23.89;100.00;99935.09;1407855;91;22277;-81
2023/09/19 09:38:32;;;;;;;14.58;6.17;;;;;;;23.86;100.00;99931.81;1430800;91;21404;-81
2023/09/19 09:41:06;;;;;;;24.07;6.58;;;;;;;23.82;100.00;99926.63;1404317;91;21493;-80
2023/09/19 09:43:40;;;;;;;20.60;7.80;;;;;;;23.90;100.00;99929.95;1418434;91;21486;-81
2023/09/19 09:46:58;;;;;;;13.10;5.55;;;;;;;23.92;100.00;99922.44;1427638;91;21999;-81
2023/09/19 09:48:39;;;;;;;16.70;6.17;;;;;;;23.95;100.00;99932.75;1422685;91;22106;-81
2023/09/19 09:51:07;;;;;;;13.38;5.58;;;;;;;23.83;100.00;99930.95;1427360;91;21529;-79
2023/09/19 09:53:33;;;;;;;27.98;6.33;;;;;;;23.64;100.00;99933.05;1395819;91;21823;-79
2023/09/19 09:56:09;;;;;;;14.00;5.95;;;;;;;23.41;100.00;99925.91;1427764;91;21396;-78
2023/09/19 09:58:54;;;;;;;23.98;5.78;;;;;;;23.32;100.00;99930.08;1379274;91;21562;-79
2023/09/19 10:01:20;;;;;;;11.53;6.20;;;;;;;23.24;100.00;99927.77;1505473;91;21434;-79
2023/09/19 10:03:51;;;;;;;23.07;7.30;;;;;;;23.17;100.00;99919.84;1359151;91;21524;-78
2023/09/19 10:06:25;;;;;;;21.55;6.65;;;;;;;23.13;100.00;99920.55;1505900;91;22012;-79
2023/09/19 10:09:29;;;;;;;19.52;6.55;;;;;;;23.07;100.00;99916.13;1391246;90;21426;-79
2023/09/19 10:12:08;;;;;;;19.05;5.80;;;;;;;23.03;100.00;99914.98;1423410;91;21450;-78
2023/09/19 10:14:38;;;;;;;19.37;6.60;;;;;;;23.01;100.00;99918.45;1426001;91;21456;-77
2023/09/19 10:17:10;;;;;;;15.25;5.55;;;;;;;23.03;100.00;99909.59;1484847;91;21382;-78
2023/09/19 10:20:00;;;;;;;19.75;6.53;;;;;;;23.04;100.00;99910.69;1430535;91;21368;-79
2023/09/19 10:22:30;;;;;;;23.50;6.40;;;;;;;23.10;100.00;99902.15;1408986;93;21419;-79
2023/09/19 10:24:57;;;;;;;19.50;6.37;;;;;;;23.28;100.00;99901.95;1443323;90;22506;-78
2023/09/19 10:27:29;;;;;;;18.40;6.58;;;;;;;23.47;100.00;99900.35;1387181;93;21469;-78
2023/09/19 10:29:59;;;;;;;16.75;7.03;;;;;;;23.59;100.00;99899.73;1418243;90;21493;-78
2023/09/19 10:32:28;;;;;;;17.98;6.37;;;;;;;23.63;100.00;99899.54;1411198;93;21478;-78
2023/09/19 10:34:55;;;;;;;14.83;5.75;;;;;;;23.66;100.00;99897.70;1428130;90;21580;-78
2023/09/19 10:37:25;;;;;;;15.68;6.65;;;;;;;23.68;100.00;99894.22;1448260;90;21367;-80
2023/09/19 10:39:53;;;;;;;24.82;6.33;;;;;;;23.69;100.00;99889.09;1444050;90;21419;-80
2023/09/19 10:42:20;;;;;;;13.50;6.45;;;;;;;23.68;100.00;99886.13;1440670;90;22477;-79
2023/09/19 10:44:55;;;;;;;17.12;6.15;;;;;;;23.66;100.00;99894.99;1450353;90;21455;-80
2023/09/19 10:47:24;;;;;;;20.92;6.35;;;;;;;23.60;100.00;99887.88;1440014;90;21500;-80
2023/09/19 10:49:50;;;;;;;17.10;7.05;;;;;;;23.51;100.00;99892.88;1438847;89;21500;-80
2023/09/19 10:52:22;;;;;;;14.75;6.80;;;;;;;23.42;100.00;99891.12;1442542;90;21596;-80
2023/09/19 10:54:57;;;;;;;14.80;5.85;;;;;;;23.34;100.00;99884.77;1443375;90;22440;-80
2023/09/19 10:57:24;;;;;;;11.80;5.87;;;;;;;23.28;100.00;99884.40;1446182;89;22118;-80
2023/09/19 11:03:18;;;;;;;12.47;5.78;;;;;;;23.20;100.00;99879.40;1431003;90;21381;-79
2023/09/19 11:05:49;;;;;;;21.00;6.47;;;;;;;23.17;100.00;99879.89;1433170;90;21537;-79
2023/09/19 11:08:16;;;;;;;17.07;6.28;;;;;;;23.14;100.00;99871.74;1371254;90;21411;-79
2023/09/19 11:10:50;;;;;;;20.17;5.85;;;;;;;23.10;100.00;99870.61;1361481;92;21272;-79
2023/09/19 11:13:34;;;;;;;14.28;6.17;;;;;;;23.09;100.00;99873.53;1507096;91;21191;-79
2023/09/19 11:16:04;;;;;;;19.40;6.95;;;;;;;23.07;100.00;99870.25;1377585;90;21486;-80
2023/09/19 11:18:48;;;;;;;14.73;5.58;;;;;;;23.05;100.00;99862.95;1528251;90;22248;-79
2023/09/19 11:21:38;;;;;;;18.25;7.50;;;;;;;23.04;100.00;99862.64;1504844;90;21603;-80
2023/09/19 11:24:25;;;;;;;11.50;5.72;;;;;;;23.05;100.00;99858.91;1443130;90;21486;-79
2023/09/19 11:26:52;;;;;;;16.93;6.75;;;;;;;23.04;100.00;99849.15;1443023;90;21494;-80
2023/09/19 11:29:29;;;;;;;11.12;6.50;;;;;;;23.06;100.00;99851.08;1425284;91;21413;-79
2023/09/19 11:31:56;;;;;;;19.67;7.50;;;;;;;23.05;100.00;99848.92;1444477;90;21794;-78
2023/09/19 11:34:45;;;;;;;13.10;6.17;;;;;;;23.01;100.00;99846.94;1454382;90;21477;-78
2023/09/19 11:37:17;;;;;;;16.20;6.97;;;;;;;22.98;100.00;99851.75;1433919;90;21551;-79
2023/09/19 11:40:19;;;;;;;21.20;6.03;;;;;;;22.95;100.00;99857.64;1453488;90;21425;-78